N816LP KBTV-KPWM
Flight info
| Callsign | N816LP |
|---|---|
| Flight time | 0h 33m |
| Altitude | 17000 |
| Route | KBTV CDOGG CDOGG4 KPWM |
| Aircraft | B350/L-VGDW/C |
Departure
| Time | 2026-05-05 01:37 |
|---|---|
| Airport | Patrick Leahy Burlington International Airport (KBTV) |
Arrival
| Time | 2026-05-05 02:11 |
|---|---|
| Airport | Portland International Jetport (KPWM) |
| Time | Latitude | Longitude | Altitude | Speed | Heading |
|---|---|---|---|---|---|
| 2026-05-05 01:22 | 44.46702 | -73.15378 | 337 ft | 0 kts | 195° |
| 2026-05-05 01:27 | 44.46703 | -73.15377 | 337 ft | 2 kts | 195° |
| 2026-05-05 01:27 | 44.46711 | -73.15374 | 335 ft | 0 kts | 195° |
| 2026-05-05 01:31 | 44.46703 | -73.15357 | 336 ft | 4 kts | 66° |
| 2026-05-05 01:31 | 44.46738 | -73.15330 | 336 ft | 6 kts | 14° |
| 2026-05-05 01:32 | 44.46796 | -73.15317 | 336 ft | 10 kts | 5° |
| 2026-05-05 01:32 | 44.46875 | -73.15319 | 336 ft | 12 kts | 351° |
| 2026-05-05 01:32 | 44.46991 | -73.15344 | 335 ft | 20 kts | 351° |
| 2026-05-05 01:32 | 44.47094 | -73.15366 | 335 ft | 1 kts | 343° |
| 2026-05-05 01:33 | 44.47133 | -73.15427 | 334 ft | 16 kts | 311° |
| 2026-05-05 01:33 | 44.47226 | -73.15576 | 331 ft | 20 kts | 310° |
| 2026-05-05 01:33 | 44.47324 | -73.15738 | 328 ft | 24 kts | 310° |
| 2026-05-05 01:33 | 44.47450 | -73.15939 | 326 ft | 30 kts | 311° |
| 2026-05-05 01:34 | 44.47599 | -73.16179 | 321 ft | 35 kts | 310° |
| 2026-05-05 01:34 | 44.47766 | -73.16445 | 317 ft | 35 kts | 312° |
| 2026-05-05 01:34 | 44.47897 | -73.16656 | 313 ft | 17 kts | 310° |
| 2026-05-05 01:34 | 44.47959 | -73.16695 | 312 ft | 7 kts | 38° |
| 2026-05-05 01:35 | 44.48003 | -73.16646 | 312 ft | 0 kts | 41° |
| 2026-05-05 01:36 | 44.48033 | -73.16608 | 311 ft | 16 kts | 43° |
| 2026-05-05 01:36 | 44.48039 | -73.16529 | 313 ft | 11 kts | 121° |
| 2026-05-05 01:36 | 44.48020 | -73.16492 | 314 ft | 0 kts | 129° |
| 2026-05-05 01:37 | 44.47796 | -73.16129 | 371 ft | 92 kts | 133° |
| 2026-05-05 01:37 | 44.47260 | -73.15251 | 540 ft | 145 kts | 134° |
| 2026-05-05 01:37 | 44.46696 | -73.14062 | 1223 ft | 148 kts | 126° |
| 2026-05-05 01:37 | 44.46190 | -73.12762 | 1772 ft | 158 kts | 129° |
| 2026-05-05 01:38 | 44.45459 | -73.11571 | 2283 ft | 163 kts | 149° |
| 2026-05-05 01:38 | 44.44469 | -73.10788 | 2802 ft | 162 kts | 173° |
| 2026-05-05 01:38 | 44.43390 | -73.10810 | 3272 ft | 173 kts | 143° |
| 2026-05-05 01:38 | 44.43057 | -73.09182 | 3821 ft | 181 kts | 117° |
| 2026-05-05 01:39 | 44.42524 | -73.07396 | 3810 ft | 214 kts | 121° |
| 2026-05-05 01:39 | 44.41924 | -73.05521 | 4391 ft | 217 kts | 111° |
| 2026-05-05 01:39 | 44.41414 | -73.03526 | 4774 ft | 217 kts | 128° |
| 2026-05-05 01:39 | 44.40548 | -73.01789 | 5207 ft | 220 kts | 133° |
| 2026-05-05 01:40 | 44.39604 | -73.00082 | 5600 ft | 224 kts | 135° |
| 2026-05-05 01:40 | 44.38632 | -72.98390 | 6011 ft | 228 kts | 136° |
| 2026-05-05 01:40 | 44.37619 | -72.96664 | 6408 ft | 231 kts | 136° |
| 2026-05-05 01:40 | 44.36631 | -72.94855 | 6806 ft | 237 kts | 130° |
| 2026-05-05 01:41 | 44.35732 | -72.92894 | 7221 ft | 241 kts | 129° |
| 2026-05-05 01:41 | 44.34786 | -72.90960 | 7529 ft | 242 kts | 131° |
| 2026-05-05 01:41 | 44.33835 | -72.89012 | 7933 ft | 244 kts | 130° |
| 2026-05-05 01:41 | 44.32882 | -72.87037 | 8284 ft | 245 kts | 130° |
| 2026-05-05 01:42 | 44.31927 | -72.85067 | 8581 ft | 245 kts | 130° |
| 2026-05-05 01:42 | 44.31296 | -72.83760 | 8852 ft | 245 kts | 130° |
| 2026-05-05 01:42 | 44.30328 | -72.81778 | 9282 ft | 248 kts | 130° |
| 2026-05-05 01:42 | 44.29354 | -72.79781 | 9690 ft | 249 kts | 130° |
| 2026-05-05 01:43 | 44.28382 | -72.77778 | 10087 ft | 250 kts | 130° |
| 2026-05-05 01:43 | 44.27402 | -72.75764 | 10492 ft | 251 kts | 130° |
| 2026-05-05 01:43 | 44.26415 | -72.73743 | 10895 ft | 253 kts | 130° |
| 2026-05-05 01:43 | 44.25417 | -72.71698 | 11317 ft | 256 kts | 129° |
| 2026-05-05 01:44 | 44.24413 | -72.69638 | 11706 ft | 258 kts | 129° |
| 2026-05-05 01:44 | 44.23398 | -72.67562 | 12119 ft | 259 kts | 129° |
| 2026-05-05 01:44 | 44.22395 | -72.65511 | 12524 ft | 260 kts | 129° |
| 2026-05-05 01:44 | 44.21374 | -72.63421 | 12957 ft | 261 kts | 129° |
| 2026-05-05 01:45 | 44.20347 | -72.61322 | 13405 ft | 263 kts | 129° |
| 2026-05-05 01:45 | 44.19310 | -72.59207 | 13808 ft | 265 kts | 129° |
| 2026-05-05 01:45 | 44.18265 | -72.57075 | 14192 ft | 267 kts | 129° |
| 2026-05-05 01:45 | 44.17211 | -72.54926 | 14565 ft | 269 kts | 129° |
| 2026-05-05 01:46 | 44.16155 | -72.52772 | 14950 ft | 269 kts | 129° |
| 2026-05-05 01:46 | 44.15097 | -72.50623 | 15359 ft | 269 kts | 129° |
| 2026-05-05 01:46 | 44.13957 | -72.48582 | 15767 ft | 261 kts | 148° |
| 2026-05-05 01:46 | 44.12497 | -72.47112 | 16174 ft | 265 kts | 141° |
| 2026-05-05 01:47 | 44.11452 | -72.44943 | 16575 ft | 274 kts | 123° |
| 2026-05-05 01:47 | 44.10557 | -72.42600 | 16806 ft | 282 kts | 122° |
| 2026-05-05 01:47 | 44.09599 | -72.40155 | 16911 ft | 293 kts | 124° |
| 2026-05-05 01:47 | 44.08582 | -72.37647 | 16947 ft | 302 kts | 124° |
| 2026-05-05 01:48 | 44.07443 | -72.35166 | 16970 ft | 306 kts | 131° |
| 2026-05-05 01:48 | 44.06191 | -72.32732 | 16972 ft | 313 kts | 129° |
| 2026-05-05 01:48 | 44.04976 | -72.30205 | 16976 ft | 316 kts | 129° |
| 2026-05-05 01:48 | 44.03715 | -72.27691 | 16972 ft | 319 kts | 129° |
| 2026-05-05 01:49 | 44.02459 | -72.25137 | 16963 ft | 320 kts | 129° |
| 2026-05-05 01:49 | 44.01194 | -72.22583 | 16954 ft | 321 kts | 129° |
| 2026-05-05 01:49 | 43.99923 | -72.20024 | 16947 ft | 322 kts | 129° |
| 2026-05-05 01:49 | 43.98650 | -72.17454 | 16940 ft | 322 kts | 129° |
| 2026-05-05 01:50 | 43.97393 | -72.14928 | 16937 ft | 322 kts | 129° |
| 2026-05-05 01:50 | 43.96121 | -72.12368 | 16937 ft | 322 kts | 129° |
| 2026-05-05 01:50 | 43.94848 | -72.09808 | 16944 ft | 322 kts | 129° |
| 2026-05-05 01:50 | 43.93572 | -72.07247 | 16944 ft | 322 kts | 129° |
| 2026-05-05 01:51 | 43.92299 | -72.04695 | 16940 ft | 322 kts | 129° |
| 2026-05-05 01:51 | 43.91042 | -72.02175 | 16946 ft | 321 kts | 129° |
| 2026-05-05 01:51 | 43.89768 | -71.99626 | 16944 ft | 321 kts | 129° |
| 2026-05-05 01:51 | 43.88500 | -71.97085 | 16945 ft | 321 kts | 129° |
| 2026-05-05 01:52 | 43.87227 | -71.94544 | 16955 ft | 320 kts | 129° |
| 2026-05-05 01:52 | 43.85957 | -71.92007 | 16952 ft | 320 kts | 129° |
| 2026-05-05 01:52 | 43.84681 | -71.89462 | 16851 ft | 324 kts | 129° |
| 2026-05-05 01:52 | 43.83400 | -71.86922 | 16520 ft | 317 kts | 129° |
| 2026-05-05 01:53 | 43.82157 | -71.84423 | 16185 ft | 311 kts | 129° |
| 2026-05-05 01:53 | 43.80929 | -71.81980 | 15839 ft | 307 kts | 129° |
| 2026-05-05 01:53 | 43.79715 | -71.79572 | 15516 ft | 303 kts | 129° |
| 2026-05-05 01:53 | 43.78517 | -71.77188 | 15188 ft | 300 kts | 128° |
| 2026-05-05 01:54 | 43.77325 | -71.74825 | 14874 ft | 298 kts | 128° |
| 2026-05-05 01:54 | 43.76158 | -71.72510 | 14562 ft | 296 kts | 128° |
| 2026-05-05 01:54 | 43.74981 | -71.70178 | 14243 ft | 294 kts | 128° |
| 2026-05-05 01:54 | 43.73812 | -71.67865 | 13926 ft | 292 kts | 128° |
| 2026-05-05 01:55 | 43.72652 | -71.65565 | 13627 ft | 291 kts | 128° |
| 2026-05-05 01:55 | 43.71491 | -71.63270 | 13252 ft | 291 kts | 128° |
| 2026-05-05 01:55 | 43.70332 | -71.60984 | 12885 ft | 290 kts | 128° |
| 2026-05-05 01:55 | 43.69180 | -71.58705 | 12507 ft | 288 kts | 128° |
| 2026-05-05 01:56 | 43.68031 | -71.56441 | 12152 ft | 287 kts | 128° |
| 2026-05-05 01:56 | 43.66889 | -71.54187 | 11790 ft | 286 kts | 128° |
| 2026-05-05 01:56 | 43.65748 | -71.51943 | 11434 ft | 285 kts | 129° |
| 2026-05-05 01:56 | 43.64622 | -71.49721 | 11222 ft | 281 kts | 128° |
| 2026-05-05 01:57 | 43.63474 | -71.47459 | 11121 ft | 291 kts | 129° |
| 2026-05-05 01:57 | 43.62307 | -71.45188 | 11078 ft | 296 kts | 129° |
| 2026-05-05 01:57 | 43.61120 | -71.42846 | 11064 ft | 298 kts | 128° |
| 2026-05-05 01:57 | 43.59922 | -71.40496 | 11046 ft | 299 kts | 129° |
| 2026-05-05 01:58 | 43.58726 | -71.38149 | 11041 ft | 299 kts | 128° |
| 2026-05-05 01:58 | 43.57527 | -71.35798 | 11033 ft | 299 kts | 129° |
| 2026-05-05 01:58 | 43.56328 | -71.33451 | 11020 ft | 300 kts | 128° |
| 2026-05-05 01:58 | 43.55127 | -71.31102 | 11011 ft | 299 kts | 128° |
| 2026-05-05 01:59 | 43.53926 | -71.28755 | 11007 ft | 299 kts | 128° |
| 2026-05-05 01:59 | 43.52726 | -71.26410 | 10999 ft | 299 kts | 128° |
| 2026-05-05 01:59 | 43.51525 | -71.24063 | 10999 ft | 299 kts | 128° |
| 2026-05-05 01:59 | 43.50323 | -71.21723 | 10999 ft | 300 kts | 128° |
| 2026-05-05 02:00 | 43.49134 | -71.19405 | 10994 ft | 300 kts | 128° |
| 2026-05-05 02:00 | 43.47930 | -71.17060 | 10989 ft | 300 kts | 128° |
| 2026-05-05 02:00 | 43.47082 | -71.14452 | 10992 ft | 303 kts | 99° |
| 2026-05-05 02:00 | 43.47194 | -71.11585 | 11006 ft | 301 kts | 78° |
| 2026-05-05 02:01 | 43.47758 | -71.08828 | 10997 ft | 298 kts | 66° |
| 2026-05-05 02:01 | 43.48551 | -71.06202 | 10977 ft | 297 kts | 64° |
| 2026-05-05 02:01 | 43.49261 | -71.03496 | 10586 ft | 297 kts | 69° |
| 2026-05-05 02:01 | 43.49971 | -71.00898 | 10193 ft | 283 kts | 65° |
| 2026-05-05 02:02 | 43.50657 | -70.98382 | 9795 ft | 278 kts | 68° |
| 2026-05-05 02:02 | 43.51308 | -70.95887 | 9371 ft | 274 kts | 66° |
| 2026-05-05 02:02 | 43.51968 | -70.93476 | 8963 ft | 271 kts | 67° |
| 2026-05-05 02:02 | 43.52610 | -70.91047 | 8538 ft | 269 kts | 67° |
| 2026-05-05 02:03 | 43.53270 | -70.88646 | 8133 ft | 266 kts | 65° |
| 2026-05-05 02:03 | 43.53963 | -70.86290 | 7727 ft | 265 kts | 64° |
| 2026-05-05 02:03 | 43.54718 | -70.83988 | 7347 ft | 262 kts | 58° |
| 2026-05-05 02:03 | 43.55629 | -70.81808 | 6946 ft | 261 kts | 57° |
| 2026-05-05 02:04 | 43.56483 | -70.79596 | 6556 ft | 261 kts | 59° |
| 2026-05-05 02:04 | 43.57329 | -70.77420 | 6168 ft | 260 kts | 58° |
| 2026-05-05 02:04 | 43.58196 | -70.75230 | 5750 ft | 259 kts | 59° |
| 2026-05-05 02:04 | 43.59046 | -70.73043 | 5334 ft | 258 kts | 59° |
| 2026-05-05 02:05 | 43.59900 | -70.70864 | 4932 ft | 257 kts | 59° |
| 2026-05-05 02:05 | 43.60744 | -70.68696 | 4532 ft | 256 kts | 59° |
| 2026-05-05 02:05 | 43.61585 | -70.66552 | 4241 ft | 251 kts | 60° |
| 2026-05-05 02:05 | 43.62413 | -70.64476 | 3992 ft | 246 kts | 58° |
| 2026-05-05 02:06 | 43.63228 | -70.62433 | 3572 ft | 237 kts | 63° |
| 2026-05-05 02:06 | 43.63945 | -70.60433 | 3186 ft | 229 kts | 59° |
| 2026-05-05 02:06 | 43.64611 | -70.58491 | 2790 ft | 225 kts | 68° |
| 2026-05-05 02:06 | 43.65129 | -70.56516 | 2541 ft | 209 kts | 70° |
| 2026-05-05 02:07 | 43.65473 | -70.54666 | 2403 ft | 189 kts | 84° |
| 2026-05-05 02:07 | 43.65536 | -70.52947 | 2353 ft | 169 kts | 96° |
| 2026-05-05 02:07 | 43.65493 | -70.51399 | 2329 ft | 158 kts | 94° |
| 2026-05-05 02:07 | 43.65497 | -70.49826 | 2335 ft | 165 kts | 92° |
| 2026-05-05 02:08 | 43.65514 | -70.48262 | 2328 ft | 161 kts | 93° |
| 2026-05-05 02:08 | 43.65526 | -70.46694 | 2136 ft | 169 kts | 94° |
| 2026-05-05 02:08 | 43.65451 | -70.45048 | 1885 ft | 172 kts | 100° |
| 2026-05-05 02:08 | 43.65313 | -70.43404 | 1647 ft | 173 kts | 102° |
| 2026-05-05 02:09 | 43.65185 | -70.41753 | 1407 ft | 172 kts | 99° |
| 2026-05-05 02:09 | 43.65090 | -70.40114 | 1176 ft | 170 kts | 99° |
| 2026-05-05 02:09 | 43.64987 | -70.38558 | 971 ft | 150 kts | 99° |
| 2026-05-05 02:09 | 43.64895 | -70.37246 | 778 ft | 128 kts | 99° |
| 2026-05-05 02:10 | 43.64823 | -70.36111 | 615 ft | 113 kts | 98° |
| 2026-05-05 02:10 | 43.64753 | -70.34998 | 478 ft | 116 kts | 98° |
| 2026-05-05 02:10 | 43.64672 | -70.33896 | 288 ft | 116 kts | 101° |
| 2026-05-05 02:10 | 43.64593 | -70.32750 | 129 ft | 120 kts | 98° |
| 2026-05-05 02:11 | 43.64522 | -70.31685 | 70 ft | 106 kts | 96° |
| 2026-05-05 02:11 | 43.64474 | -70.30879 | 62 ft | 38 kts | 101° |
| 2026-05-05 02:11 | 43.64507 | -70.30697 | 60 ft | 13 kts | 4° |
| 2026-05-05 02:11 | 43.64638 | -70.30696 | 61 ft | 22 kts | 358° |
| 2026-05-05 02:12 | 43.64721 | -70.30699 | 56 ft | 15 kts | 357° |
| 2026-05-05 02:12 | 43.64900 | -70.30713 | 62 ft | 3 kts | 323° |
| 2026-05-05 02:12 | 43.64896 | -70.30751 | 64 ft | 4 kts | 258° |
| 2026-05-05 02:13 | 43.64896 | -70.30761 | 64 ft | 1 kts | 280° |
| 2026-05-05 02:13 | 43.64905 | -70.30795 | 64 ft | 6 kts | 299° |
| 2026-05-05 02:13 | 43.64914 | -70.30807 | 62 ft | 1 kts | 347° |
| 2026-05-05 02:13 | 43.64930 | -70.30805 | 64 ft | 0 kts | 26° |
| 2026-05-05 02:14 | 43.64931 | -70.30805 | 64 ft | 0 kts | 22° |
| 2026-05-05 02:14 | 43.64932 | -70.30805 | 64 ft | 0 kts | 13° |